Time;durP1;ratioP1;P1;durP2;ratioP2;P2;SDS_P1;SDS_P2;PMS_P1;PMS_P2;Temp;Humidity;BMP_temperature;BMP_pressure;BME280_temperature;BME280_humidity;BME280_pressure;Samples;Min_cycle;Max_cycle;Signal;HPM_P1;HPM_P2
2022/05/26 00:01:28;;;;;;;;;;;;;;;14.35;85.80;101769.41;5018047;28;19927;-72
2022/05/26 00:03:54;;;;;;;;;;;;;;;14.35;85.72;101774.66;5000064;28;19933;-73
2022/05/26 00:06:21;;;;;;;;;;;;;;;14.36;86.02;101776.38;5017858;28;19924;-73
2022/05/26 00:08:46;;;;;;;;;;;;;;;14.34;86.02;101772.94;4999786;28;19964;-73
2022/05/26 00:11:14;;;;;;;;;;;;;;;14.34;85.86;101774.72;4997027;28;19917;-72
2022/05/26 00:13:40;;;;;;;;;;;;;;;14.31;85.70;101773.06;5015463;28;19945;-73
2022/05/26 00:16:06;;;;;;;;;;;;;;;14.34;85.91;101769.47;5011531;28;20194;-73
2022/05/26 00:18:31;;;;;;;;;;;;;;;14.37;85.53;101766.66;5015904;28;19917;-73
2022/05/26 00:20:57;;;;;;;;;;;;;;;14.34;85.45;101775.56;5008091;28;19913;-73
2022/05/26 00:23:22;;;;;;;;;;;;;;;14.34;85.45;101772.94;4974068;28;19910;-73
2022/05/26 00:25:47;;;;;;;;;;;;;;;14.32;85.42;101777.41;5010143;28;19917;-73
2022/05/26 00:28:12;;;;;;;;;;;;;;;14.31;85.75;101780.09;4982118;28;19921;-73
2022/05/26 00:30:38;;;;;;;;;;;;;;;14.32;85.84;101781.84;4999930;28;19919;-73
2022/05/26 00:33:05;;;;;;;;;;;;;;;14.30;85.56;101781.91;5012426;28;20296;-73
2022/05/26 00:35:30;;;;;;;;;;;;;;;14.30;85.63;101781.91;5017928;28;20189;-73
2022/05/26 00:37:55;;;;;;;;;;;;;;;14.31;86.01;101785.38;5016024;28;19921;-72
2022/05/26 00:40:21;;;;;;;;;;;;;;;14.31;86.04;101788.88;5017569;28;20112;-73
2022/05/26 00:42:49;;;;;;;;;;;;;;;14.31;85.27;101793.28;5017299;28;19910;-73
2022/05/26 00:45:14;;;;;;;;;;;;;;;14.32;85.01;101790.59;5009488;28;19921;-73
2022/05/26 00:47:41;;;;;;;;;;;;;;;14.33;85.55;101801.97;5016644;28;19921;-73
2022/05/26 00:50:11;;;;;;;;;;;;;;;14.32;85.34;101795.88;4996135;28;19956;-73
2022/05/26 00:52:42;;;;;;;;;;;;;;;14.34;85.62;101806.34;5017584;28;19995;-73
2022/05/26 00:55:10;;;;;;;;;;;;;;;14.33;85.55;101808.09;5037469;28;19917;-73
2022/05/26 00:57:37;;;;;;;;;;;;;;;14.33;85.42;101799.34;5037263;28;19936;-73
2022/05/26 01:00:02;;;;;;;;;;;;;;;14.32;85.42;101808.19;5038717;28;19908;-73
2022/05/26 01:04:55;;;;;;;;;;;;;;;14.31;85.54;101812.56;5026830;28;20252;-73
2022/05/26 01:07:23;;;;;;;;;;;;;;;14.29;85.62;101809.16;5038821;28;20089;-73
2022/05/26 01:09:48;;;;;;;;;;;;;;;14.31;85.69;101822.28;5036854;28;19909;-72
2022/05/26 01:12:14;;;;;;;;;;;;;;;14.31;85.51;101814.38;5040680;28;20259;-73
2022/05/26 01:14:46;;;;;;;;;;;;;;;14.32;85.41;101808.19;5022638;28;19913;-72
2022/05/26 01:17:29;;;;;;;;;;;;;;;14.29;85.88;101818.84;5036523;28;19909;-73
2022/05/26 01:20:12;;;;;;;;;;;;;;;14.27;85.76;101816.25;5041767;28;20243;-72
2022/05/26 01:22:55;;;;;;;;;;;;;;;14.30;85.63;101817.94;5041489;28;19967;-72
2022/05/26 01:25:35;;;;;;;;;;;;;;;14.29;85.13;101822.31;5040709;28;20181;-73
2022/05/26 01:28:10;;;;;;;;;;;;;;;14.31;85.08;101823.13;5040531;28;20201;-73
2022/05/26 01:30:41;;;;;;;;;;;;;;;14.30;84.97;101821.41;5040103;28;19995;-73
2022/05/26 01:33:13;;;;;;;;;;;;;;;14.30;85.16;101820.56;5041100;28;19948;-72
2022/05/26 01:36:04;;;;;;;;;;;;;;;14.29;84.76;101821.47;5040708;28;19909;-72
2022/05/26 01:38:45;;;;;;;;;;;;;;;14.30;84.47;101820.56;5036476;28;19992;-72
2022/05/26 01:41:10;;;;;;;;;;;;;;;14.29;84.54;101830.22;5040533;28;19909;-73
2022/05/26 01:43:36;;;;;;;;;;;;;;;14.30;84.23;101831.13;5040795;28;19993;-73
2022/05/26 01:46:09;;;;;;;;;;;;;;;14.30;84.47;101834.59;5017765;28;20206;-72
2022/05/26 01:48:53;;;;;;;;;;;;;;;14.30;83.90;101834.59;5020741;28;19921;-73
2022/05/26 01:51:33;;;;;;;;;;;;;;;14.29;83.93;101832.03;5025582;28;19917;-73
2022/05/26 01:54:11;;;;;;;;;;;;;;;14.28;84.11;101838.19;5024588;28;19909;-72
2022/05/26 01:56:43;;;;;;;;;;;;;;;14.26;84.10;101840.91;5026278;28;19917;-72
2022/05/26 01:59:08;;;;;;;;;;;;;;;14.26;84.05;101835.66;5028681;28;19905;-72
2022/05/26 02:01:36;;;;;;;;;;;;;;;14.27;83.51;101839.13;5002169;28;20239;-73
2022/05/26 02:04:05;;;;;;;;;;;;;;;14.27;83.49;101847.03;5033734;28;19925;-72
2022/05/26 02:06:33;;;;;;;;;;;;;;;14.28;83.59;101846.97;5032594;28;20367;-73
2022/05/26 02:08:58;;;;;;;;;;;;;;;14.27;83.00;101850.50;5021986;28;19917;-72
2022/05/26 02:11:24;;;;;;;;;;;;;;;14.28;83.33;101854.88;5031973;28;19917;-72
2022/05/26 02:13:54;;;;;;;;;;;;;;;14.28;83.40;101854.00;5006401;28;20120;-72
2022/05/26 02:16:24;;;;;;;;;;;;;;;14.27;83.55;101862.84;5023353;28;19911;-73
2022/05/26 02:18:53;;;;;;;;;;;;;;;14.24;83.79;101857.69;5022999;28;19927;-72
2022/05/26 02:21:22;;;;;;;;;;;;;;;14.23;83.53;101861.25;5030017;28;19916;-72
2022/05/26 02:24:06;;;;;;;;;;;;;;;14.23;83.43;101861.25;5023139;28;19927;-72
2022/05/26 02:26:32;;;;;;;;;;;;;;;14.23;83.32;101862.09;5025094;28;19940;-72
2022/05/26 02:31:42;;;;;;;;;;;;;;;14.23;82.81;101864.75;5015720;28;19927;-76
2022/05/26 02:34:08;;;;;;;;;;;;;;;14.23;82.51;101879.69;5038951;28;19937;-75
2022/05/26 02:36:36;;;;;;;;;;;;;;;14.19;82.84;101878.97;5040183;28;19921;-76
2022/05/26 02:39:02;;;;;;;;;;;;;;;14.21;82.75;101885.03;5020881;28;19910;-76
2022/05/26 02:41:29;;;;;;;;;;;;;;;14.19;82.37;101890.34;5025681;28;19917;-76
2022/05/26 02:43:54;;;;;;;;;;;;;;;14.19;82.53;101885.06;5011129;28;19929;-77
2022/05/26 02:46:38;;;;;;;;;;;;;;;14.17;81.99;101893.94;5018671;28;19924;-77
2022/05/26 02:49:22;;;;;;;;;;;;;;;14.17;82.17;101892.19;5040142;28;19917;-77
2022/05/26 02:51:53;;;;;;;;;;;;;;;14.17;81.68;101892.19;5031816;28;19917;-77
2022/05/26 02:54:36;;;;;;;;;;;;;;;14.17;81.87;101896.56;5039539;28;19963;-77
2022/05/26 02:57:02;;;;;;;;;;;;;;;14.15;81.51;101893.16;5018561;28;19916;-77
2022/05/26 02:59:46;;;;;;;;;;;;;;;14.15;81.64;101898.41;5030947;28;19917;-77
2022/05/26 03:02:19;;;;;;;;;;;;;;;14.14;81.25;101897.56;5036919;28;19917;-77
2022/05/26 03:04:46;;;;;;;;;;;;;;;14.14;81.20;101894.94;5039680;28;20223;-77
2022/05/26 03:07:18;;;;;;;;;;;;;;;14.13;81.16;101901.09;5039748;28;19984;-77
2022/05/26 03:09:44;;;;;;;;;;;;;;;14.13;81.38;101897.63;5039770;28;20145;-77
2022/05/26 03:12:27;;;;;;;;;;;;;;;14.13;81.14;101900.25;5039188;28;19913;-77
2022/05/26 03:14:52;;;;;;;;;;;;;;;14.12;81.26;101896.78;5039641;28;19909;-77
2022/05/26 03:17:17;;;;;;;;;;;;;;;14.13;81.11;101897.63;5038577;28;19984;-77
2022/05/26 03:19:43;;;;;;;;;;;;;;;14.12;81.25;101901.19;5039483;28;19993;-77
2022/05/26 03:22:08;;;;;;;;;;;;;;;14.11;81.33;101902.94;5038865;28;20345;-76
2022/05/26 03:24:33;;;;;;;;;;;;;;;14.11;81.01;101905.56;5038804;28;19925;-76
2022/05/26 03:26:59;;;;;;;;;;;;;;;14.11;81.28;101908.22;5039487;28;19920;-76
2022/05/26 03:29:24;;;;;;;;;;;;;;;14.12;81.07;101917.00;5021074;28;20375;-77
2022/05/26 03:31:49;;;;;;;;;;;;;;;14.10;81.11;101905.63;5039036;28;20079;-77
2022/05/26 03:42:48;;;;;;;;;;;;;;;14.09;81.03;101911.84;5009519;28;19924;-77
2022/05/26 03:45:14;;;;;;;;;;;;;;;14.07;81.24;101905.78;5036748;28;19943;-76
2022/05/26 03:47:39;;;;;;;;;;;;;;;14.07;81.20;101911.03;5019843;28;19921;-77
2022/05/26 03:50:05;;;;;;;;;;;;;;;14.06;81.31;101904.91;5038002;28;19924;-76
2022/05/26 03:52:30;;;;;;;;;;;;;;;14.05;81.02;101912.88;5037578;28;19916;-77
2022/05/26 03:54:55;;;;;;;;;;;;;;;14.05;81.22;101919.00;5020258;28;19917;-76
2022/05/26 03:57:25;;;;;;;;;;;;;;;14.06;81.02;101919.84;5031916;28;19923;-77
2022/05/26 03:59:50;;;;;;;;;;;;;;;14.06;81.17;101927.75;5037744;28;19909;-77
2022/05/26 04:02:16;;;;;;;;;;;;;;;14.05;81.04;101923.41;5036570;28;19927;-77
2022/05/26 04:04:41;;;;;;;;;;;;;;;14.04;81.35;101930.44;5037526;28;19965;-77
2022/05/26 04:07:06;;;;;;;;;;;;;;;14.04;81.04;101933.06;5037050;28;19912;-77
2022/05/26 04:09:32;;;;;;;;;;;;;;;14.02;81.00;101933.16;5029570;28;19968;-77
2022/05/26 04:11:57;;;;;;;;;;;;;;;14.04;81.10;101934.84;5013392;28;19921;-77
2022/05/26 04:14:22;;;;;;;;;;;;;;;14.02;81.09;101937.53;5031042;28;20333;-77
2022/05/26 04:16:47;;;;;;;;;;;;;;;14.04;81.00;101948.03;5016135;28;19913;-77
2022/05/26 04:19:13;;;;;;;;;;;;;;;14.01;80.95;101951.66;5032881;28;19908;-77
2022/05/26 04:22:14;;;;;;;;;;;;;;;14.00;80.60;101953.41;5037109;28;19921;-77
2022/05/26 04:24:23;;;;;;;;;;;;;;;14.00;80.99;101960.44;5015579;28;19925;-76
2022/05/26 04:26:49;;;;;;;;;;;;;;;13.99;80.95;101964.88;5032081;28;20267;-77
2022/05/26 04:29:14;;;;;;;;;;;;;;;13.99;81.03;101969.28;5037491;28;19909;-77
2022/05/26 04:31:40;;;;;;;;;;;;;;;13.97;80.97;101964.06;5036516;28;20026;-77
2022/05/26 04:34:05;;;;;;;;;;;;;;;13.97;80.90;101969.34;5031355;28;19912;-77
2022/05/26 04:36:30;;;;;;;;;;;;;;;13.98;80.86;101971.03;5036569;28;19940;-77
2022/05/26 04:38:56;;;;;;;;;;;;;;;13.97;80.71;101976.34;5037141;28;19975;-76
2022/05/26 04:41:22;;;;;;;;;;;;;;;13.97;80.75;101978.97;5036625;28;19924;-77
2022/05/26 04:43:47;;;;;;;;;;;;;;;13.97;80.97;101981.63;5037259;28;19917;-77
2022/05/26 04:46:12;;;;;;;;;;;;;;;13.95;81.06;101984.34;5036372;28;20213;-76
2022/05/26 04:48:37;;;;;;;;;;;;;;;13.94;80.76;101977.34;5036697;28;20116;-77
2022/05/26 04:51:02;;;;;;;;;;;;;;;13.94;80.82;101979.97;5036732;28;19932;-77
2022/05/26 04:53:29;;;;;;;;;;;;;;;13.92;81.18;101984.44;5037060;28;19928;-77
2022/05/26 04:55:54;;;;;;;;;;;;;;;13.93;81.17;101993.19;5036924;28;19971;-77
2022/05/26 04:58:20;;;;;;;;;;;;;;;13.92;81.23;101991.50;5036237;28;20220;-77
2022/05/26 05:00:45;;;;;;;;;;;;;;;13.91;81.02;101997.66;5018524;28;19913;-76
2022/05/26 05:03:10;;;;;;;;;;;;;;;13.91;81.17;102005.56;5036566;28;19992;-77
2022/05/26 05:05:37;;;;;;;;;;;;;;;13.90;81.40;101999.44;5037430;28;19959;-77
2022/05/26 05:08:02;;;;;;;;;;;;;;;13.91;81.50;101995.03;5033332;28;19917;-77
2022/05/26 05:10:27;;;;;;;;;;;;;;;13.90;81.31;102004.72;5037100;28;19952;-77
2022/05/26 05:12:55;;;;;;;;;;;;;;;13.90;81.41;102006.47;5036713;28;20240;-77
2022/05/26 05:15:23;;;;;;;;;;;;;;;13.90;81.62;102015.25;5036477;28;19905;-77
2022/05/26 05:17:49;;;;;;;;;;;;;;;13.89;81.90;102005.59;5034307;28;20278;-77
2022/05/26 05:20:14;;;;;;;;;;;;;;;13.89;81.82;102008.25;5036274;28;19913;-76
2022/05/26 05:22:45;;;;;;;;;;;;;;;13.89;81.69;102013.50;5036862;28;20043;-77
2022/05/26 05:25:16;;;;;;;;;;;;;;;13.89;81.53;102021.41;5036474;28;19917;-77
2022/05/26 05:27:49;;;;;;;;;;;;;;;13.91;81.76;102024.84;5036379;28;20143;-77
2022/05/26 05:30:19;;;;;;;;;;;;;;;13.90;81.75;102025.78;5035972;28;19920;-77
2022/05/26 05:32:50;;;;;;;;;;;;;;;13.91;82.08;102016.09;5036337;28;19917;-77
2022/05/26 05:35:19;;;;;;;;;;;;;;;13.90;82.30;102022.25;5036264;28;19939;-77
2022/05/26 05:37:44;;;;;;;;;;;;;;;13.90;81.78;102033.66;5016064;28;19988;-76
2022/05/26 05:40:10;;;;;;;;;;;;;;;13.89;82.15;102033.72;5031055;28;20129;-77
2022/05/26 05:42:36;;;;;;;;;;;;;;;13.90;82.12;102025.78;5036158;28;20116;-77
2022/05/26 05:45:01;;;;;;;;;;;;;;;13.91;82.37;102029.25;5015026;28;19936;-77
2022/05/26 05:47:26;;;;;;;;;;;;;;;13.91;82.76;102037.16;5035896;28;19987;-77
2022/05/26 05:49:51;;;;;;;;;;;;;;;13.90;82.50;102033.66;5040065;28;19917;-77
2022/05/26 05:52:18;;;;;;;;;;;;;;;13.92;82.51;102033.63;5039464;28;20204;-77
2022/05/26 05:54:43;;;;;;;;;;;;;;;13.90;82.65;102044.22;5039104;28;20224;-77
2022/05/26 05:57:08;;;;;;;;;;;;;;;13.90;82.36;102044.22;5033634;28;19985;-77
2022/05/26 05:59:33;;;;;;;;;;;;;;;13.91;81.94;102045.06;5037185;28;19953;-77
2022/05/26 06:01:59;;;;;;;;;;;;;;;13.93;82.31;102048.50;5039152;28;19921;-77
2022/05/26 06:04:24;;;;;;;;;;;;;;;13.94;82.24;102052.84;5038382;28;19921;-76
2022/05/26 06:06:50;;;;;;;;;;;;;;;13.95;81.96;102049.28;5039084;28;19917;-76
2022/05/26 06:09:20;;;;;;;;;;;;;;;13.94;81.61;102050.22;5038761;28;19979;-76
2022/05/26 06:11:46;;;;;;;;;;;;;;;13.94;82.11;102058.97;5038745;28;19921;-77
2022/05/26 06:14:11;;;;;;;;;;;;;;;13.95;82.02;102054.56;5031262;28;20113;-77
2022/05/26 06:16:36;;;;;;;;;;;;;;;13.96;81.80;102062.41;5020918;28;19921;-76
2022/05/26 06:19:02;;;;;;;;;;;;;;;13.95;81.75;102055.44;5038464;28;19945;-77
2022/05/26 06:21:27;;;;;;;;;;;;;;;13.95;81.46;102067.72;5039325;28;19924;-77
2022/05/26 06:23:56;;;;;;;;;;;;;;;13.97;81.58;102081.69;5014497;28;19940;-77
2022/05/26 06:26:22;;;;;;;;;;;;;;;13.97;81.10;102069.41;5027935;28;19917;-77
2022/05/26 06:31:31;;;;;;;;;;;;;;;13.98;81.67;102078.16;5039691;28;19928;-76
2022/05/26 06:39:12;;;;;;;;;;;;;;;13.99;81.55;102086.00;5035067;28;19917;-77
2022/05/26 06:44:22;;;;;;;;;;;;;;;14.01;81.15;102097.34;5035553;28;20216;-77
2022/05/26 06:46:48;;;;;;;;;;;;;;;14.02;81.07;102092.94;5031743;28;19932;-77
2022/05/26 06:49:13;;;;;;;;;;;;;;;14.04;81.16;102088.47;5036513;28;19921;-77
2022/05/26 06:51:39;;;;;;;;;;;;;;;14.04;81.30;102096.38;5019256;28;20400;-77
2022/05/26 06:54:07;;;;;;;;;;;;;;;14.08;81.26;102094.50;5033763;28;20212;-77
2022/05/26 06:56:33;;;;;;;;;;;;;;;14.07;81.17;102098.91;5029356;28;20113;-77
2022/05/26 06:58:58;;;;;;;;;;;;;;;14.10;81.56;102095.28;5012715;28;19952;-77
2022/05/26 07:01:23;;;;;;;;;;;;;;;14.11;81.11;102097.03;5026994;28;20015;-77
2022/05/26 07:03:49;;;;;;;;;;;;;;;14.13;81.06;102109.22;5034330;28;19932;-77
2022/05/26 07:06:16;;;;;;;;;;;;;;;14.14;80.68;102096.94;5039071;28;19919;-77
2022/05/26 07:08:41;;;;;;;;;;;;;;;14.16;80.86;102110.91;5031407;28;19920;-77
2022/05/26 07:11:06;;;;;;;;;;;;;;;14.15;80.57;102106.53;5034933;28;19921;-77
2022/05/26 07:13:32;;;;;;;;;;;;;;;14.16;80.62;102108.25;5031899;28;19908;-77
2022/05/26 07:15:57;;;;;;;;;;;;;;;14.19;80.89;102113.44;5021200;28;19949;-77
2022/05/26 07:18:22;;;;;;;;;;;;;;;14.20;80.71;102120.41;5013616;28;19956;-77
2022/05/26 07:20:48;;;;;;;;;;;;;;;14.19;80.46;102122.19;5032922;28;19925;-77
2022/05/26 07:23:13;;;;;;;;;;;;;;;14.24;81.00;102126.44;5034192;28;19944;-77
2022/05/26 07:25:39;;;;;;;;;;;;;;;14.26;81.27;102127.22;5034333;28;19925;-77
2022/05/26 07:28:05;;;;;;;;;;;;;;;14.28;80.46;102123.66;5038188;28;19912;-77
2022/05/26 07:30:30;;;;;;;;;;;;;;;14.28;80.46;102120.13;5017781;28;20235;-77
2022/05/26 07:32:55;;;;;;;;;;;;;;;14.31;80.76;102120.03;5037825;28;20175;-77
2022/05/26 07:35:20;;;;;;;;;;;;;;;14.31;80.99;102123.50;5025615;28;19920;-76
2022/05/26 07:43:14;;;;;;;;;;;;;;;14.34;80.31;102130.47;5031931;28;20252;-77
2022/05/26 07:45:39;;;;;;;;;;;;;;;14.37;80.99;102128.59;5019594;28;19929;-77
2022/05/26 07:48:05;;;;;;;;;;;;;;;14.39;81.50;102123.25;5033719;28;20133;-77
2022/05/26 07:50:30;;;;;;;;;;;;;;;14.43;81.10;102129.28;5034781;28;19959;-77
2022/05/26 07:52:55;;;;;;;;;;;;;;;14.44;81.16;102142.38;5038377;28;20097;-77
2022/05/26 07:55:21;;;;;;;;;;;;;;;14.42;80.55;102141.56;5037541;28;19943;-77
2022/05/26 07:57:46;;;;;;;;;;;;;;;14.44;80.42;102142.38;5030545;28;19916;-77
2022/05/26 08:00:12;;;;;;;;;;;;;;;14.48;80.12;102141.38;5037498;28;20209;-77
2022/05/26 08:02:38;;;;;;;;;;;;;;;14.52;80.05;102142.13;5027799;28;19920;-77
2022/05/26 08:05:05;;;;;;;;;;;;;;;14.56;80.25;102147.22;5026098;28;19967;-77
2022/05/26 08:07:30;;;;;;;;;;;;;;;14.61;79.69;102155.00;5000231;28;19980;-77
2022/05/26 08:09:55;;;;;;;;;;;;;;;14.64;79.37;102152.22;5033328;28;19968;-77
2022/05/26 08:12:21;;;;;;;;;;;;;;;14.66;80.05;102150.41;5016021;28;19928;-77
2022/05/26 08:14:47;;;;;;;;;;;;;;;14.67;79.98;102164.44;5028540;28;19920;-77
2022/05/26 08:17:13;;;;;;;;;;;;;;;14.67;79.98;102152.13;5036925;28;19974;-77
2022/05/26 08:19:38;;;;;;;;;;;;;;;14.70;79.80;102159.94;5037370;28;19917;-77
2022/05/26 08:22:04;;;;;;;;;;;;;;;14.72;79.03;102154.59;5014613;28;19917;-77
2022/05/26 08:24:29;;;;;;;;;;;;;;;14.74;79.26;102153.63;5030156;28;19932;-77
2022/05/26 08:26:56;;;;;;;;;;;;;;;14.83;79.15;102159.47;5036088;28;19913;-77
2022/05/26 08:29:21;;;;;;;;;;;;;;;14.88;79.58;102163.66;5037335;28;19915;-77
2022/05/26 08:31:46;;;;;;;;;;;;;;;14.90;79.38;102166.25;5035573;28;19956;-77
2022/05/26 08:34:12;;;;;;;;;;;;;;;14.92;78.93;102169.69;5036164;28;20137;-77
2022/05/26 08:36:37;;;;;;;;;;;;;;;14.91;78.92;102178.50;5033824;28;19917;-77
2022/05/26 08:39:03;;;;;;;;;;;;;;;14.91;78.41;102175.84;5037243;28;19958;-77
2022/05/26 08:41:33;;;;;;;;;;;;;;;14.90;77.16;102192.63;5037691;28;19952;-77
2022/05/26 08:44:11;;;;;;;;;;;;;;;14.94;78.20;102188.94;5037329;28;20240;-77
2022/05/26 08:46:48;;;;;;;;;;;;;;;14.90;77.33;102185.56;5036855;28;19921;-77
2022/05/26 08:49:34;;;;;;;;;;;;;;;14.91;77.98;102186.41;5037262;28;20108;-77
2022/05/26 08:52:06;;;;;;;;;;;;;;;14.91;78.29;102202.22;5029609;28;20116;-77
2022/05/26 08:54:36;;;;;;;;;;;;;;;14.90;78.06;102204.03;5023577;28;20008;-77
2022/05/26 08:57:02;;;;;;;;;;;;;;;14.91;78.73;102194.31;5037160;28;19955;-77
2022/05/26 08:59:39;;;;;;;;;;;;;;;14.89;77.42;102197.00;5031322;28;19917;-77
2022/05/26 09:02:05;;;;;;;;;;;;;;;14.92;77.41;102210.09;5027425;28;19917;-77
2022/05/26 09:04:30;;;;;;;;;;;;;;;14.96;76.50;102208.22;5033627;28;19917;-77
2022/05/26 09:15:14;;;;;;;;;;;;;;;15.02;77.13;102213.25;5037062;28;19924;-78
2022/05/26 09:17:39;;;;;;;;;;;;;;;15.04;77.04;102216.69;5032970;28;19921;-77
2022/05/26 09:20:19;;;;;;;;;;;;;;;15.05;77.53;102221.06;5007842;28;19920;-77
2022/05/26 09:22:45;;;;;;;;;;;;;;;15.07;77.29;102231.56;5026845;28;19962;-77
2022/05/26 09:25:29;;;;;;;;;;;;;;;15.07;77.92;102221.84;5040752;28;19920;-77
2022/05/26 09:27:55;;;;;;;;;;;;;;;15.08;77.73;102231.50;5040699;28;19924;-77
2022/05/26 09:30:20;;;;;;;;;;;;;;;15.12;77.00;102234.88;5040449;28;20124;-78
2022/05/26 09:32:46;;;;;;;;;;;;;;;15.15;77.69;102230.34;5032356;28;19960;-77
2022/05/26 09:35:13;;;;;;;;;;;;;;;15.19;77.45;102239.00;5021630;28;19914;-77
2022/05/26 09:37:40;;;;;;;;;;;;;;;15.21;76.76;102229.25;5038050;28;19956;-78
2022/05/26 09:40:16;;;;;;;;;;;;;;;15.25;76.58;102230.84;5032745;28;19912;-78
2022/05/26 09:42:42;;;;;;;;;;;;;;;15.29;76.74;102237.72;5035083;28;19913;-77
2022/05/26 09:45:13;;;;;;;;;;;;;;;15.33;76.24;102236.72;5039731;28;19928;-78
2022/05/26 09:47:53;;;;;;;;;;;;;;;15.35;75.06;102248.06;5040033;28;19939;-78
2022/05/26 09:50:33;;;;;;;;;;;;;;;15.38;76.12;102240.94;5018658;28;20007;-78
2022/05/26 09:53:00;;;;;;;;;;;;;;;15.41;74.77;102241.69;5029422;28;19917;-77
2022/05/26 09:55:27;;;;;;;;;;;;;;;15.46;75.18;102238.84;5039116;28;19928;-78
2022/05/26 09:58:27;;;;;;;;;;;;;;;15.50;74.39;102241.31;5018151;28;20146;-77
2022/05/26 10:00:53;;;;;;;;;;;;;;;15.54;74.58;102250.00;5030478;28;19919;-77
2022/05/26 10:03:45;;;;;;;;;;;;;;;15.58;74.72;102253.38;5034493;28;20409;-78
2022/05/26 10:06:15;;;;;;;;;;;;;;;15.60;74.40;102251.53;5005192;28;19932;-77
2022/05/26 10:08:47;;;;;;;;;;;;;;;15.63;75.63;102256.69;5038757;28;19952;-78
2022/05/26 10:11:17;;;;;;;;;;;;;;;15.64;74.91;102267.16;5036759;28;20235;-78
2022/05/26 10:13:48;;;;;;;;;;;;;;;15.64;74.42;102279.53;5038801;28;19921;-78
2022/05/26 10:16:25;;;;;;;;;;;;;;;15.65;74.19;102270.69;5036428;28;19913;-78
2022/05/26 10:18:50;;;;;;;;;;;;;;;15.66;74.11;102272.41;5037381;28;19944;-78
2022/05/26 10:21:18;;;;;;;;;;;;;;;15.66;73.08;102254.78;5038923;28;20276;-77
2022/05/26 10:23:56;;;;;;;;;;;;;;;15.70;74.67;102252.88;5038558;28;20007;-78
2022/05/26 10:26:21;;;;;;;;;;;;;;;15.73;74.00;102247.47;5038145;28;19920;-77
2022/05/26 10:28:46;;;;;;;;;;;;;;;15.77;73.91;102254.41;5034869;28;20232;-77
2022/05/26 10:31:18;;;;;;;;;;;;;;;15.80;73.90;102248.13;5038915;28;19913;-77
2022/05/26 10:34:00;;;;;;;;;;;;;;;15.81;73.00;102257.75;5037667;28;19932;-77
2022/05/26 10:36:26;;;;;;;;;;;;;;;15.81;72.18;102256.00;5038248;28;19979;-77
2022/05/26 10:38:54;;;;;;;;;;;;;;;15.81;72.52;102256.00;5036491;28;19952;-77
2022/05/26 10:41:48;;;;;;;;;;;;;;;15.81;73.72;102263.91;5032638;28;19980;-78
2022/05/26 10:44:19;;;;;;;;;;;;;;;15.80;71.29;102242.84;5019138;28;19924;-77
2022/05/26 10:47:05;;;;;;;;;;;;;;;15.78;72.40;102248.19;5038338;28;19928;-77
2022/05/26 10:49:37;;;;;;;;;;;;;;;15.79;70.88;102256.94;4985118;28;19940;-77
2022/05/26 10:52:07;;;;;;;;;;;;;;;15.74;70.54;102244.81;5038114;28;20251;-77
2022/05/26 10:54:38;;;;;;;;;;;;;;;15.74;70.78;102251.88;5030291;28;19927;-77
2022/05/26 10:57:15;;;;;;;;;;;;;;;15.74;72.61;102252.72;5006849;28;20152;-77
2022/05/26 10:59:43;;;;;;;;;;;;;;;15.73;72.29;102252.75;5036647;28;20139;-77
2022/05/26 11:02:17;;;;;;;;;;;;;;;15.73;71.49;102247.47;5036365;28;19917;-78
2022/05/26 11:04:43;;;;;;;;;;;;;;;15.77;71.38;102241.19;5036905;28;19917;-77
2022/05/26 11:07:26;;;;;;;;;;;;;;;15.76;70.40;102244.75;5036413;28;19917;-77
2022/05/26 11:09:53;;;;;;;;;;;;;;;15.79;72.34;102238.47;5034248;28;19927;-77
2022/05/26 11:12:28;;;;;;;;;;;;;;;15.78;71.94;102224.41;5033351;28;20161;-77
2022/05/26 11:18:05;;;;;;;;;;;;;;;15.84;72.69;102229.44;5037721;28;19920;-77
2022/05/26 11:20:34;;;;;;;;;;;;;;;15.87;72.34;102225.81;5028577;28;19923;-77
2022/05/26 11:23:03;;;;;;;;;;;;;;;15.91;72.07;102230.91;5038510;28;19917;-78
2022/05/26 11:25:30;;;;;;;;;;;;;;;15.97;71.74;102223.66;5029416;28;20156;-77
2022/05/26 11:27:56;;;;;;;;;;;;;;;16.00;72.83;102229.66;5037030;28;20247;-77
2022/05/26 11:36:11;;;;;;;;;;;;;;;16.07;68.76;102227.63;5007263;28;19913;-78
2022/05/26 11:38:48;;;;;;;;;;;;;;;16.07;69.83;102235.56;5037548;28;19921;-77
2022/05/26 11:41:27;;;;;;;;;;;;;;;16.06;70.89;102247.03;5010952;28;19913;-77
2022/05/26 11:44:10;;;;;;;;;;;;;;;16.04;71.29;102252.38;5021312;28;19924;-78
2022/05/26 11:46:41;;;;;;;;;;;;;;;16.03;70.54;102244.56;5037189;28;20247;-77
2022/05/26 11:49:07;;;;;;;;;;;;;;;16.00;70.03;102237.59;5033996;28;19978;-77
2022/05/26 11:51:38;;;;;;;;;;;;;;;16.01;70.63;102254.28;5029410;28;20228;-77
2022/05/26 11:54:04;;;;;;;;;;;;;;;16.03;72.09;102255.13;5009159;28;19918;-77
2022/05/26 11:56:32;;;;;;;;;;;;;;;16.00;70.99;102256.09;5023469;28;19979;-77
2022/05/26 11:59:16;;;;;;;;;;;;;;;15.99;70.07;102250.84;5037324;28;19916;-77
2022/05/26 12:01:44;;;;;;;;;;;;;;;15.98;70.92;102251.81;5038258;28;19963;-77
2022/05/26 12:04:12;;;;;;;;;;;;;;;15.97;71.16;102250.06;5034941;28;19967;-77
2022/05/26 12:06:37;;;;;;;;;;;;;;;15.97;71.42;102258.00;5036587;28;19924;-77
2022/05/26 12:09:18;;;;;;;;;;;;;;;15.96;71.68;102245.72;5041318;28;20158;-78
2022/05/26 12:11:55;;;;;;;;;;;;;;;15.98;72.11;102252.66;5027373;28;19985;-77
2022/05/26 12:14:26;;;;;;;;;;;;;;;15.94;70.71;102253.72;5036462;28;19948;-78
2022/05/26 12:16:52;;;;;;;;;;;;;;;15.96;69.82;102264.22;5034946;28;20323;-77
2022/05/26 12:19:46;;;;;;;;;;;;;;;15.97;70.14;102253.59;5037020;28;20000;-77
2022/05/26 12:22:13;;;;;;;;;;;;;;;15.99;70.62;102264.06;5003974;28;19980;-77
2022/05/26 12:24:38;;;;;;;;;;;;;;;15.94;70.87;102256.34;5035960;28;20000;-77
2022/05/26 12:27:04;;;;;;;;;;;;;;;15.95;70.55;102257.19;5034314;28;19913;-77
2022/05/26 12:29:47;;;;;;;;;;;;;;;15.93;70.43;102262.53;5025405;28;19917;-77
2022/05/26 12:32:20;;;;;;;;;;;;;;;15.88;69.95;102257.47;5009696;28;19984;-77
2022/05/26 12:35:00;;;;;;;;;;;;;;;15.91;70.87;102275.81;5030599;28;19913;-77
2022/05/26 12:37:37;;;;;;;;;;;;;;;15.89;69.24;102256.53;5029555;28;19963;-77
2022/05/26 12:40:21;;;;;;;;;;;;;;;15.91;68.60;102254.66;5030571;28;19913;-77
2022/05/26 12:43:05;;;;;;;;;;;;;;;15.95;67.69;102247.47;5036190;28;19923;-77
2022/05/26 12:45:37;;;;;;;;;;;;;;;16.02;69.11;102258.66;5036677;28;19921;-77
2022/05/26 12:48:06;;;;;;;;;;;;;;;16.03;70.73;102253.34;5032021;28;19917;-77
2022/05/26 12:50:37;;;;;;;;;;;;;;;16.01;69.82;102255.19;5014955;28;19924;-77
2022/05/26 12:53:08;;;;;;;;;;;;;;;16.00;68.82;102247.31;5034582;28;19988;-77
2022/05/26 12:55:57;;;;;;;;;;;;;;;15.98;69.13;102262.38;5038983;28;20118;-77
2022/05/26 12:58:26;;;;;;;;;;;;;;;15.97;68.61;102255.34;5013803;28;19924;-77
2022/05/26 13:00:54;;;;;;;;;;;;;;;15.97;69.87;102242.16;5038518;28;19916;-77
2022/05/26 13:03:29;;;;;;;;;;;;;;;15.99;70.53;102246.47;5034641;28;19995;-77
2022/05/26 13:06:27;;;;;;;;;;;;;;;16.01;71.46;102256.94;5030527;28;20156;-77
2022/05/26 13:09:10;;;;;;;;;;;;;;;15.98;68.45;102255.28;5033875;28;19955;-76
2022/05/26 13:11:42;;;;;;;;;;;;;;;15.96;69.75;102259.78;5024984;28;19991;-77
2022/05/26 13:14:13;;;;;;;;;;;;;;;15.99;70.03;102264.94;5014351;28;19913;-77
2022/05/26 13:16:39;;;;;;;;;;;;;;;16.00;68.42;102256.09;5039131;28;19988;-76
2022/05/26 13:19:11;;;;;;;;;;;;;;;15.99;69.93;102257.03;5029450;28;20115;-77
2022/05/26 13:21:36;;;;;;;;;;;;;;;15.99;70.24;102248.22;5022236;28;19917;-77
2022/05/26 13:24:02;;;;;;;;;;;;;;;15.99;69.43;102253.50;5039310;28;20173;-77
2022/05/26 13:26:27;;;;;;;;;;;;;;;15.99;69.90;102238.53;5005662;28;19922;-76
2022/05/26 13:28:54;;;;;;;;;;;;;;;15.99;69.82;102229.72;5033043;28;19924;-77
2022/05/26 13:34:06;;;;;;;;;;;;;;;16.01;69.73;102233.16;5022045;28;19912;-77
2022/05/26 13:36:35;;;;;;;;;;;;;;;16.00;68.09;102247.31;5036444;28;19948;-76